sensor_id;sensor_type;location;lat;lon;timestamp;pressure;altitude;pressure_sealevel;temperature;humidity
58471;BME280;44258;51.288;12.068;2023-07-02T00:00:45;99449.22;;;19.90;59.75
58471;BME280;44258;51.288;12.068;2023-07-02T00:03:34;99453.00;;;19.98;60.00
58471;BME280;44258;51.288;12.068;2023-07-02T00:06:20;99453.16;;;20.04;59.47
58471;BME280;44258;51.288;12.068;2023-07-02T00:09:07;99446.88;;;20.04;59.62
58471;BME280;44258;51.288;12.068;2023-07-02T00:11:55;99456.06;;;19.94;60.02
58471;BME280;44258;51.288;12.068;2023-07-02T00:14:46;99451.63;;;19.93;59.77
58471;BME280;44258;51.288;12.068;2023-07-02T00:17:34;99449.06;;;19.92;59.83
58471;BME280;44258;51.288;12.068;2023-07-02T00:20:26;99462.84;;;19.82;60.30
58471;BME280;44258;51.288;12.068;2023-07-02T00:23:15;99450.25;;;19.81;60.13
58471;BME280;44258;51.288;12.068;2023-07-02T00:26:02;99458.09;;;19.84;59.84
58471;BME280;44258;51.288;12.068;2023-07-02T00:28:50;99456.38;;;19.83;60.25
58471;BME280;44258;51.288;12.068;2023-07-02T00:31:37;99447.16;;;19.84;59.81
58471;BME280;44258;51.288;12.068;2023-07-02T00:34:24;99453.84;;;19.90;60.07
58471;BME280;44258;51.288;12.068;2023-07-02T00:37:16;99454.34;;;19.93;59.71
58471;BME280;44258;51.288;12.068;2023-07-02T00:40:03;99454.50;;;19.92;59.71
58471;BME280;44258;51.288;12.068;2023-07-02T00:42:50;99456.41;;;19.91;59.65
58471;BME280;44258;51.288;12.068;2023-07-02T00:45:38;99455.19;;;19.94;59.79
58471;BME280;44258;51.288;12.068;2023-07-02T00:48:27;99459.31;;;19.98;59.66
58471;BME280;44258;51.288;12.068;2023-07-02T00:51:15;99454.19;;;19.87;60.05
58471;BME280;44258;51.288;12.068;2023-07-02T00:54:07;99455.00;;;19.79;60.11
58471;BME280;44258;51.288;12.068;2023-07-02T00:56:56;99457.06;;;19.77;60.15
58471;BME280;44258;51.288;12.068;2023-07-02T00:59:51;99455.34;;;19.76;60.04
58471;BME280;44258;51.288;12.068;2023-07-02T01:02:42;99452.72;;;19.66;60.97
58471;BME280;44258;51.288;12.068;2023-07-02T01:05:29;99454.78;;;19.72;60.79
58471;BME280;44258;51.288;12.068;2023-07-02T01:08:20;99453.41;;;19.68;60.94
58471;BME280;44258;51.288;12.068;2023-07-02T01:11:12;99447.09;;;19.68;61.51
58471;BME280;44258;51.288;12.068;2023-07-02T01:14:04;99450.81;;;19.50;61.56
58471;BME280;44258;51.288;12.068;2023-07-02T01:16:57;99452.53;;;19.60;61.49
58471;BME280;44258;51.288;12.068;2023-07-02T01:19:51;99454.06;;;19.62;61.88
58471;BME280;44258;51.288;12.068;2023-07-02T01:22:40;99446.75;;;19.63;61.83
58471;BME280;44258;51.288;12.068;2023-07-02T01:25:27;99451.81;;;19.49;62.86
58471;BME280;44258;51.288;12.068;2023-07-02T01:28:15;99448.94;;;19.51;62.91
58471;BME280;44258;51.288;12.068;2023-07-02T01:31:03;99445.56;;;19.57;62.39
58471;BME280;44258;51.288;12.068;2023-07-02T01:33:54;99447.75;;;19.53;62.61
58471;BME280;44258;51.288;12.068;2023-07-02T01:36:48;99450.28;;;19.47;62.59
58471;BME280;44258;51.288;12.068;2023-07-02T01:39:35;99459.66;;;19.44;62.37
58471;BME280;44258;51.288;12.068;2023-07-02T01:42:22;99469.19;;;19.40;62.98
58471;BME280;44258;51.288;12.068;2023-07-02T01:45:10;99477.19;;;19.42;62.96
58471;BME280;44258;51.288;12.068;2023-07-02T01:47:56;99475.00;;;19.45;62.77
58471;BME280;44258;51.288;12.068;2023-07-02T01:50:44;99475.38;;;19.50;62.62
58471;BME280;44258;51.288;12.068;2023-07-02T01:53:35;99476.75;;;19.54;62.66
58471;BME280;44258;51.288;12.068;2023-07-02T01:56:22;99473.31;;;19.52;62.91
58471;BME280;44258;51.288;12.068;2023-07-02T01:59:09;99471.13;;;19.64;62.38
58471;BME280;44258;51.288;12.068;2023-07-02T02:01:58;99471.81;;;19.66;62.22
58471;BME280;44258;51.288;12.068;2023-07-02T02:04:45;99471.66;;;19.68;62.18
58471;BME280;44258;51.288;12.068;2023-07-02T02:07:32;99471.81;;;19.66;61.53
58471;BME280;44258;51.288;12.068;2023-07-02T02:10:21;99481.84;;;19.58;61.63
58471;BME280;44258;51.288;12.068;2023-07-02T02:13:10;99478.78;;;19.52;61.64
58471;BME280;44258;51.288;12.068;2023-07-02T02:15:57;99486.44;;;19.49;61.73
58471;BME280;44258;51.288;12.068;2023-07-02T02:18:44;99483.00;;;19.47;61.45
58471;BME280;44258;51.288;12.068;2023-07-02T02:21:31;99469.56;;;19.53;61.30
58471;BME280;44258;51.288;12.068;2023-07-02T02:24:18;99480.31;;;19.55;60.61
58471;BME280;44258;51.288;12.068;2023-07-02T02:27:08;99478.81;;;19.61;60.56
58471;BME280;44258;51.288;12.068;2023-07-02T02:30:00;99487.31;;;19.58;60.48
58471;BME280;44258;51.288;12.068;2023-07-02T02:32:47;99485.09;;;19.53;59.80
58471;BME280;44258;51.288;12.068;2023-07-02T02:35:34;99502.41;;;19.44;60.26
58471;BME280;44258;51.288;12.068;2023-07-02T02:38:21;99508.66;;;19.70;59.12
58471;BME280;44258;51.288;12.068;2023-07-02T02:41:08;99508.97;;;19.59;59.54
58471;BME280;44258;51.288;12.068;2023-07-02T02:43:57;99500.88;;;19.41;59.57
58471;BME280;44258;51.288;12.068;2023-07-02T02:46:44;99495.81;;;19.46;59.73
58471;BME280;44258;51.288;12.068;2023-07-02T02:49:33;99502.75;;;19.06;60.47
58471;BME280;44258;51.288;12.068;2023-07-02T02:52:23;99502.25;;;19.11;59.93
58471;BME280;44258;51.288;12.068;2023-07-02T02:55:11;99510.91;;;19.06;60.03
58471;BME280;44258;51.288;12.068;2023-07-02T02:57:58;99517.72;;;19.02;59.93
58471;BME280;44258;51.288;12.068;2023-07-02T03:00:51;99519.75;;;19.00;60.08
58471;BME280;44258;51.288;12.068;2023-07-02T03:03:38;99522.38;;;19.10;59.87
58471;BME280;44258;51.288;12.068;2023-07-02T03:06:30;99519.84;;;19.17;59.70
58471;BME280;44258;51.288;12.068;2023-07-02T03:09:17;99516.31;;;19.24;59.23
58471;BME280;44258;51.288;12.068;2023-07-02T03:12:04;99525.09;;;19.10;59.27
58471;BME280;44258;51.288;12.068;2023-07-02T03:14:53;99522.31;;;19.02;59.44
58471;BME280;44258;51.288;12.068;2023-07-02T03:17:44;99518.06;;;19.07;59.06
58471;BME280;44258;51.288;12.068;2023-07-02T03:20:31;99527.28;;;19.06;58.69
58471;BME280;44258;51.288;12.068;2023-07-02T03:23:20;99522.31;;;19.02;59.02
58471;BME280;44258;51.288;12.068;2023-07-02T03:26:07;99522.56;;;19.17;58.85
58471;BME280;44258;51.288;12.068;2023-07-02T03:28:54;99516.31;;;19.24;58.70
58471;BME280;44258;51.288;12.068;2023-07-02T03:31:45;99523.50;;;19.33;58.65
58471;BME280;44258;51.288;12.068;2023-07-02T03:34:37;99528.78;;;19.35;58.53
58471;BME280;44258;51.288;12.068;2023-07-02T03:37:24;99523.22;;;19.45;57.93
58471;BME280;44258;51.288;12.068;2023-07-02T03:40:14;99534.66;;;19.48;57.98
58471;BME280;44258;51.288;12.068;2023-07-02T03:43:01;99538.59;;;19.54;58.09
58471;BME280;44258;51.288;12.068;2023-07-02T03:45:51;99532.63;;;19.50;57.96
58471;BME280;44258;51.288;12.068;2023-07-02T03:48:38;99544.91;;;19.54;58.07
58471;BME280;44258;51.288;12.068;2023-07-02T03:51:26;99550.69;;;19.51;58.16
58471;BME280;44258;51.288;12.068;2023-07-02T03:54:13;99539.47;;;19.54;58.07
58471;BME280;44258;51.288;12.068;2023-07-02T03:57:03;99544.25;;;19.61;58.35
58471;BME280;44258;51.288;12.068;2023-07-02T03:59:50;99551.75;;;19.59;58.33
58471;BME280;44258;51.288;12.068;2023-07-02T04:02:37;99556.81;;;19.53;58.43
58471;BME280;44258;51.288;12.068;2023-07-02T04:05:24;99555.94;;;19.45;58.78
58471;BME280;44258;51.288;12.068;2023-07-02T04:08:12;99563.31;;;19.52;57.98
58471;BME280;44258;51.288;12.068;2023-07-02T04:10:59;99555.94;;;19.45;58.20
58471;BME280;44258;51.288;12.068;2023-07-02T04:13:45;99559.66;;;19.44;58.35
58471;BME280;44258;51.288;12.068;2023-07-02T04:16:33;99566.31;;;19.41;58.50
58471;BME280;44258;51.288;12.068;2023-07-02T04:19:21;99553.72;;;19.40;57.98
58471;BME280;44258;51.288;12.068;2023-07-02T04:22:08;99553.13;;;19.28;57.57
58471;BME280;44258;51.288;12.068;2023-07-02T04:24:58;99556.25;;;19.16;58.22
58471;BME280;44258;51.288;12.068;2023-07-02T04:27:47;99547.09;;;19.17;57.99
58471;BME280;44258;51.288;12.068;2023-07-02T04:30:34;99551.34;;;19.19;57.82
58471;BME280;44258;51.288;12.068;2023-07-02T04:33:21;99561.94;;;19.22;57.74
58471;BME280;44258;51.288;12.068;2023-07-02T04:36:08;99559.88;;;19.16;57.56
58471;BME280;44258;51.288;12.068;2023-07-02T04:38:58;99560.81;;;19.07;57.63
58471;BME280;44258;51.288;12.068;2023-07-02T04:41:46;99568.09;;;18.98;58.10
58471;BME280;44258;51.288;12.068;2023-07-02T04:44:36;99565.84;;;18.93;58.67
58471;BME280;44258;51.288;12.068;2023-07-02T04:47:28;99568.63;;;19.02;58.12
58471;BME280;44258;51.288;12.068;2023-07-02T04:50:17;99569.16;;;19.05;58.11
58471;BME280;44258;51.288;12.068;2023-07-02T04:53:04;99572.47;;;19.17;57.65
58471;BME280;44258;51.288;12.068;2023-07-02T04:55:54;99564.19;;;19.27;57.51
58471;BME280;44258;51.288;12.068;2023-07-02T04:58:44;99568.25;;;19.23;57.89
58471;BME280;44258;51.288;12.068;2023-07-02T05:01:31;99571.22;;;19.38;57.49
58471;BME280;44258;51.288;12.068;2023-07-02T05:04:19;99573.50;;;19.42;57.24
58471;BME280;44258;51.288;12.068;2023-07-02T05:07:06;99571.13;;;19.47;56.60
58471;BME280;44258;51.288;12.068;2023-07-02T05:09:53;99578.94;;;19.42;56.51
58471;BME280;44258;51.288;12.068;2023-07-02T05:12:40;99583.09;;;19.54;56.14
58471;BME280;44258;51.288;12.068;2023-07-02T05:15:28;99574.94;;;19.63;55.93
58471;BME280;44258;51.288;12.068;2023-07-02T05:18:15;99584.06;;;19.45;55.33
58471;BME280;44258;51.288;12.068;2023-07-02T05:21:08;99578.25;;;19.40;55.46
58471;BME280;44258;51.288;12.068;2023-07-02T05:23:56;99579.44;;;19.46;55.05
58471;BME280;44258;51.288;12.068;2023-07-02T05:26:43;99584.94;;;19.54;54.98
58471;BME280;44258;51.288;12.068;2023-07-02T05:29:33;99595.59;;;19.65;54.31
58471;BME280;44258;51.288;12.068;2023-07-02T05:32:27;99589.31;;;19.39;55.56
58471;BME280;44258;51.288;12.068;2023-07-02T05:35:17;99588.50;;;19.46;55.05
58471;BME280;44258;51.288;12.068;2023-07-02T05:38:04;99592.00;;;19.65;55.13
58471;BME280;44258;51.288;12.068;2023-07-02T05:40:51;99597.72;;;19.80;54.59
58471;BME280;44258;51.288;12.068;2023-07-02T05:43:44;99597.97;;;19.68;54.83
58471;BME280;44258;51.288;12.068;2023-07-02T05:46:31;99597.81;;;19.70;54.35
58471;BME280;44258;51.288;12.068;2023-07-02T05:49:19;99597.75;;;19.88;54.54
58471;BME280;44258;51.288;12.068;2023-07-02T05:52:06;99598.31;;;20.00;54.37
58471;BME280;44258;51.288;12.068;2023-07-02T05:54:53;99595.22;;;19.94;53.46
58471;BME280;44258;51.288;12.068;2023-07-02T05:57:40;99598.00;;;20.11;53.22
58471;BME280;44258;51.288;12.068;2023-07-02T06:00:30;99585.94;;;20.22;52.80
58471;BME280;44258;51.288;12.068;2023-07-02T06:03:17;99590.53;;;20.38;52.92
58471;BME280;44258;51.288;12.068;2023-07-02T06:06:07;99589.56;;;20.47;53.06
58471;BME280;44258;51.288;12.068;2023-07-02T06:08:54;99597.59;;;20.48;52.97
58471;BME280;44258;51.288;12.068;2023-07-02T06:11:41;99595.34;;;20.44;53.24
58471;BME280;44258;51.288;12.068;2023-07-02T06:14:28;99588.75;;;20.63;53.60
58471;BME280;44258;51.288;12.068;2023-07-02T06:17:15;99588.59;;;20.64;53.45
58471;BME280;44258;51.288;12.068;2023-07-02T06:20:02;99578.00;;;20.69;53.29
58471;BME280;44258;51.288;12.068;2023-07-02T06:22:51;99582.78;;;20.67;53.52
58471;BME280;44258;51.288;12.068;2023-07-02T06:25:38;99586.13;;;20.45;52.78
58471;BME280;44258;51.288;12.068;2023-07-02T06:28:33;99585.63;;;20.49;53.57
58471;BME280;44258;51.288;12.068;2023-07-02T06:31:25;99589.75;;;20.62;53.47
58471;BME280;44258;51.288;12.068;2023-07-02T06:34:13;99593.38;;;20.70;52.65
58471;BME280;44258;51.288;12.068;2023-07-02T06:37:00;99591.66;;;20.78;52.79
58471;BME280;44258;51.288;12.068;2023-07-02T06:39:48;99595.06;;;20.88;52.78
58471;BME280;44258;51.288;12.068;2023-07-02T06:42:35;99597.47;;;21.07;52.09
58471;BME280;44258;51.288;12.068;2023-07-02T06:45:22;99598.59;;;21.54;51.30
58471;BME280;44258;51.288;12.068;2023-07-02T06:48:12;99592.28;;;21.93;50.97
58471;BME280;44258;51.288;12.068;2023-07-02T06:51:02;99592.91;;;22.11;48.81
58471;BME280;44258;51.288;12.068;2023-07-02T06:53:51;99599.06;;;22.13;49.15
58471;BME280;44258;51.288;12.068;2023-07-02T06:56:41;99602.81;;;22.44;47.44
58471;BME280;44258;51.288;12.068;2023-07-02T06:59:28;99605.63;;;22.59;46.89
58471;BME280;44258;51.288;12.068;2023-07-02T07:02:18;99601.81;;;22.68;46.59
58471;BME280;44258;51.288;12.068;2023-07-02T07:05:06;99607.94;;;22.78;46.31
58471;BME280;44258;51.288;12.068;2023-07-02T07:07:53;99613.38;;;23.01;45.74
58471;BME280;44258;51.288;12.068;2023-07-02T07:10:40;99615.84;;;22.65;45.74
58471;BME280;44258;51.288;12.068;2023-07-02T07:13:28;99619.66;;;22.87;45.72
58471;BME280;44258;51.288;12.068;2023-07-02T07:16:15;99625.19;;;23.02;41.42
58471;BME280;44258;51.288;12.068;2023-07-02T07:19:02;99619.19;;;23.21;40.10
58471;BME280;44258;51.288;12.068;2023-07-02T07:21:51;99626.75;;;23.19;39.74
58471;BME280;44258;51.288;12.068;2023-07-02T07:24:38;99634.22;;;22.87;40.16
58471;BME280;44258;51.288;12.068;2023-07-02T07:27:46;99638.34;;;22.60;40.91
58471;BME280;44258;51.288;12.068;2023-07-02T07:30:37;99628.66;;;22.41;40.55
58471;BME280;44258;51.288;12.068;2023-07-02T07:33:24;99628.47;;;22.20;40.89
58471;BME280;44258;51.288;12.068;2023-07-02T07:36:13;99636.41;;;22.06;41.63
58471;BME280;44258;51.288;12.068;2023-07-02T07:39:03;99627.47;;;22.12;42.21
58471;BME280;44258;51.288;12.068;2023-07-02T07:41:50;99634.31;;;22.08;42.56
58471;BME280;44258;51.288;12.068;2023-07-02T07:44:37;99628.94;;;22.31;41.12
58471;BME280;44258;51.288;12.068;2023-07-02T07:47:25;99630.28;;;22.36;40.36
58471;BME280;44258;51.288;12.068;2023-07-02T07:50:12;99630.91;;;22.46;39.81
58471;BME280;44258;51.288;12.068;2023-07-02T07:52:59;99622.38;;;22.09;40.34
58471;BME280;44258;51.288;12.068;2023-07-02T07:55:47;99623.28;;;21.85;41.55
58471;BME280;44258;51.288;12.068;2023-07-02T07:58:34;99621.34;;;21.94;40.67
58471;BME280;44258;51.288;12.068;2023-07-02T08:01:26;99632.34;;;22.33;39.01
58471;BME280;44258;51.288;12.068;2023-07-02T08:04:19;99640.69;;;22.63;38.58
58471;BME280;44258;51.288;12.068;2023-07-02T08:07:07;99628.06;;;22.31;39.90
58471;BME280;44258;51.288;12.068;2023-07-02T08:10:01;99632.81;;;22.06;39.48
58471;BME280;44258;51.288;12.068;2023-07-02T08:12:48;99643.47;;;22.01;39.35
58471;BME280;44258;51.288;12.068;2023-07-02T08:15:37;99636.19;;;21.60;40.74
58471;BME280;44258;51.288;12.068;2023-07-02T08:18:24;99636.56;;;22.13;40.40
58471;BME280;44258;51.288;12.068;2023-07-02T08:21:19;99639.16;;;22.38;40.91
58471;BME280;44258;51.288;12.068;2023-07-02T08:24:09;99648.09;;;22.86;39.64
58471;BME280;44258;51.288;12.068;2023-07-02T08:26:58;99635.72;;;22.90;39.56
58471;BME280;44258;51.288;12.068;2023-07-02T08:29:44;99640.56;;;23.26;39.83
58471;BME280;44258;51.288;12.068;2023-07-02T08:32:34;99643.63;;;23.84;37.25
58471;BME280;44258;51.288;12.068;2023-07-02T08:35:21;99640.00;;;23.83;36.84
58471;BME280;44258;51.288;12.068;2023-07-02T08:38:10;99644.63;;;23.98;36.74
58471;BME280;44258;51.288;12.068;2023-07-02T08:40:57;99634.59;;;24.56;36.69
58471;BME280;44258;51.288;12.068;2023-07-02T08:43:47;99624.09;;;25.03;35.66
58471;BME280;44258;51.288;12.068;2023-07-02T08:46:35;99638.97;;;24.65;35.96
58471;BME280;44258;51.288;12.068;2023-07-02T08:49:21;99640.09;;;24.92;36.63
58471;BME280;44258;51.288;12.068;2023-07-02T08:52:10;99641.25;;;24.83;36.37
58471;BME280;44258;51.288;12.068;2023-07-02T08:54:58;99644.22;;;24.67;36.37
58471;BME280;44258;51.288;12.068;2023-07-02T08:57:51;99654.09;;;24.40;36.49
58471;BME280;44258;51.288;12.068;2023-07-02T09:00:39;99659.13;;;23.91;37.63
58471;BME280;44258;51.288;12.068;2023-07-02T09:03:28;99652.88;;;23.68;37.65
58471;BME280;44258;51.288;12.068;2023-07-02T09:06:17;99652.19;;;23.51;38.37
58471;BME280;44258;51.288;12.068;2023-07-02T09:09:04;99656.38;;;23.24;38.94
58471;BME280;44258;51.288;12.068;2023-07-02T09:11:53;99659.84;;;23.41;39.27
58471;BME280;44258;51.288;12.068;2023-07-02T09:14:39;99651.91;;;23.61;38.27
58471;BME280;44258;51.288;12.068;2023-07-02T09:17:29;99664.06;;;23.96;37.35
58471;BME280;44258;51.288;12.068;2023-07-02T09:20:17;99663.75;;;24.36;36.93
58471;BME280;44258;51.288;12.068;2023-07-02T09:23:04;99667.91;;;24.46;37.51
58471;BME280;44258;51.288;12.068;2023-07-02T09:25:51;99661.41;;;24.03;36.97
58471;BME280;44258;51.288;12.068;2023-07-02T09:28:39;99650.94;;;24.79;36.02
58471;BME280;44258;51.288;12.068;2023-07-02T09:31:26;99661.94;;;24.79;36.13
58471;BME280;44258;51.288;12.068;2023-07-02T09:34:13;99652.19;;;25.20;35.27
58471;BME280;44258;51.288;12.068;2023-07-02T09:37:02;99657.41;;;25.36;35.20
58471;BME280;44258;51.288;12.068;2023-07-02T09:39:51;99658.00;;;25.31;34.53
58471;BME280;44258;51.288;12.068;2023-07-02T09:42:39;99654.69;;;24.93;35.17
58471;BME280;44258;51.288;12.068;2023-07-02T09:45:30;99656.31;;;24.87;35.79
58471;BME280;44258;51.288;12.068;2023-07-02T09:48:17;99647.09;;;24.95;35.40
58471;BME280;44258;51.288;12.068;2023-07-02T09:51:06;99664.00;;;24.92;35.78
58471;BME280;44258;51.288;12.068;2023-07-02T09:53:57;99655.50;;;25.08;35.58
58471;BME280;44258;51.288;12.068;2023-07-02T09:56:47;99660.63;;;25.68;34.81
58471;BME280;44258;51.288;12.068;2023-07-02T09:59:40;99664.66;;;25.37;34.59
58471;BME280;44258;51.288;12.068;2023-07-02T10:02:35;99660.53;;;25.05;35.65
58471;BME280;44258;51.288;12.068;2023-07-02T10:05:27;99671.38;;;25.13;34.67
58471;BME280;44258;51.288;12.068;2023-07-02T10:08:15;99672.47;;;25.12;35.13
58471;BME280;44258;51.288;12.068;2023-07-02T10:11:10;99660.84;;;25.17;35.16
58471;BME280;44258;51.288;12.068;2023-07-02T10:13:58;99667.25;;;25.24;34.72
58471;BME280;44258;51.288;12.068;2023-07-02T10:16:50;99672.75;;;25.45;35.11
58471;BME280;44258;51.288;12.068;2023-07-02T10:19:50;99662.91;;;25.58;34.69
58471;BME280;44258;51.288;12.068;2023-07-02T10:22:45;99663.59;;;24.95;34.96
58471;BME280;44258;51.288;12.068;2023-07-02T10:25:34;99673.88;;;24.50;35.84
58471;BME280;44258;51.288;12.068;2023-07-02T10:28:23;99692.69;;;24.17;35.53
58471;BME280;44258;51.288;12.068;2023-07-02T10:31:19;99689.78;;;23.65;36.47
58471;BME280;44258;51.288;12.068;2023-07-02T10:34:09;99693.31;;;23.89;35.64
58471;BME280;44258;51.288;12.068;2023-07-02T10:36:59;99695.56;;;23.85;36.17
58471;BME280;44258;51.288;12.068;2023-07-02T10:39:46;99697.63;;;23.54;36.32
58471;BME280;44258;51.288;12.068;2023-07-02T10:42:33;99681.97;;;23.39;36.55
58471;BME280;44258;51.288;12.068;2023-07-02T10:45:21;99700.25;;;23.24;36.70
58471;BME280;44258;51.288;12.068;2023-07-02T10:48:20;99707.88;;;23.13;36.86
58471;BME280;44258;51.288;12.068;2023-07-02T10:51:11;99713.28;;;22.76;37.74
58471;BME280;44258;51.288;12.068;2023-07-02T10:54:01;99703.38;;;23.21;37.14
58471;BME280;44258;51.288;12.068;2023-07-02T10:56:58;99705.31;;;23.35;37.20
58471;BME280;44258;51.288;12.068;2023-07-02T10:59:45;99702.50;;;23.81;36.93
58471;BME280;44258;51.288;12.068;2023-07-02T11:02:35;99697.97;;;24.03;36.04
58471;BME280;44258;51.288;12.068;2023-07-02T11:05:22;99697.75;;;24.35;35.79
58471;BME280;44258;51.288;12.068;2023-07-02T11:08:09;99703.09;;;24.21;36.12
58471;BME280;44258;51.288;12.068;2023-07-02T11:11:05;99717.31;;;24.25;36.19
58471;BME280;44258;51.288;12.068;2023-07-02T11:13:52;99704.13;;;24.05;36.42
58471;BME280;44258;51.288;12.068;2023-07-02T11:16:42;99716.22;;;24.41;35.56
58471;BME280;44258;51.288;12.068;2023-07-02T11:19:30;99711.56;;;24.56;35.87
58471;BME280;44258;51.288;12.068;2023-07-02T11:22:17;99714.69;;;25.04;35.02
58471;BME280;44258;51.288;12.068;2023-07-02T11:25:11;99709.13;;;25.19;35.55
58471;BME280;44258;51.288;12.068;2023-07-02T11:28:04;99704.09;;;24.50;35.06
58471;BME280;44258;51.288;12.068;2023-07-02T11:30:52;99714.66;;;24.31;35.52
58471;BME280;44258;51.288;12.068;2023-07-02T11:33:40;99708.75;;;24.35;35.57
58471;BME280;44258;51.288;12.068;2023-07-02T11:36:27;99713.31;;;24.42;35.98
58471;BME280;44258;51.288;12.068;2023-07-02T11:39:14;99696.69;;;24.65;33.25
58471;BME280;44258;51.288;12.068;2023-07-02T11:42:03;99706.16;;;24.99;33.58
58471;BME280;44258;51.288;12.068;2023-07-02T11:44:54;99716.13;;;25.22;32.89
58471;BME280;44258;51.288;12.068;2023-07-02T11:47:41;99702.03;;;25.31;33.06
58471;BME280;44258;51.288;12.068;2023-07-02T11:50:28;99704.50;;;25.98;33.27
58471;BME280;44258;51.288;12.068;2023-07-02T11:53:18;99694.63;;;26.10;32.64
58471;BME280;44258;51.288;12.068;2023-07-02T11:56:05;99710.81;;;25.91;32.34
58471;BME280;44258;51.288;12.068;2023-07-02T11:58:59;99706.78;;;25.16;32.13
58471;BME280;44258;51.288;12.068;2023-07-02T12:01:48;99708.56;;;24.51;33.31
58471;BME280;44258;51.288;12.068;2023-07-02T12:04:34;99712.94;;;24.30;34.20
58471;BME280;44258;51.288;12.068;2023-07-02T12:07:21;99726.66;;;24.01;34.51
58471;BME280;44258;51.288;12.068;2023-07-02T12:10:10;99726.44;;;23.87;34.92
58471;BME280;44258;51.288;12.068;2023-07-02T12:12:59;99715.38;;;23.81;34.94
58471;BME280;44258;51.288;12.068;2023-07-02T12:15:48;99718.34;;;23.94;35.13
58471;BME280;44258;51.288;12.068;2023-07-02T12:18:38;99713.59;;;24.03;35.46
58471;BME280;44258;51.288;12.068;2023-07-02T12:21:25;99712.97;;;24.67;34.97
58471;BME280;44258;51.288;12.068;2023-07-02T12:24:15;99693.25;;;25.00;33.44
58471;BME280;44258;51.288;12.068;2023-07-02T12:27:07;99708.03;;;24.77;34.48
58471;BME280;44258;51.288;12.068;2023-07-02T12:30:01;99709.41;;;24.51;34.08
58471;BME280;44258;51.288;12.068;2023-07-02T12:32:54;99710.78;;;24.77;33.85
58471;BME280;44258;51.288;12.068;2023-07-02T12:35:42;99719.81;;;24.56;33.94
58471;BME280;44258;51.288;12.068;2023-07-02T12:38:29;99721.09;;;24.09;34.10
58471;BME280;44258;51.288;12.068;2023-07-02T12:41:18;99729.88;;;24.64;33.25
58471;BME280;44258;51.288;12.068;2023-07-02T12:44:05;99717.88;;;24.86;33.53
58471;BME280;44258;51.288;12.068;2023-07-02T12:46:52;99726.91;;;25.02;33.85
58471;BME280;44258;51.288;12.068;2023-07-02T12:49:39;99722.31;;;24.87;33.96
58471;BME280;44258;51.288;12.068;2023-07-02T12:52:28;99729.47;;;24.67;32.49
58471;BME280;44258;51.288;12.068;2023-07-02T12:55:14;99726.59;;;24.90;32.25
58471;BME280;44258;51.288;12.068;2023-07-02T12:58:01;99725.47;;;24.84;32.51
58471;BME280;44258;51.288;12.068;2023-07-02T13:00:48;99718.91;;;24.34;32.18
58471;BME280;44258;51.288;12.068;2023-07-02T13:03:35;99738.41;;;24.24;33.29
58471;BME280;44258;51.288;12.068;2023-07-02T13:06:23;99735.94;;;24.00;33.54
58471;BME280;44258;51.288;12.068;2023-07-02T13:09:12;99745.78;;;23.94;33.79
58471;BME280;44258;51.288;12.068;2023-07-02T13:11:58;99742.75;;;24.04;34.12
58471;BME280;44258;51.288;12.068;2023-07-02T13:14:45;99745.44;;;24.42;33.42
58471;BME280;44258;51.288;12.068;2023-07-02T13:17:36;99741.72;;;24.64;33.57
58471;BME280;44258;51.288;12.068;2023-07-02T13:20:29;99747.25;;;25.01;32.68
58471;BME280;44258;51.288;12.068;2023-07-02T13:23:19;99736.69;;;25.26;30.80
58471;BME280;44258;51.288;12.068;2023-07-02T13:26:08;99742.75;;;24.78;30.91
58471;BME280;44258;51.288;12.068;2023-07-02T13:28:54;99745.31;;;24.80;31.27
58471;BME280;44258;51.288;12.068;2023-07-02T13:31:41;99750.81;;;24.80;31.26
58471;BME280;44258;51.288;12.068;2023-07-02T13:34:28;99755.63;;;24.92;31.15
58471;BME280;44258;51.288;12.068;2023-07-02T13:37:15;99755.31;;;24.87;31.50
58471;BME280;44258;51.288;12.068;2023-07-02T13:40:04;99757.88;;;24.89;32.05
58471;BME280;44258;51.288;12.068;2023-07-02T13:42:55;99755.53;;;24.86;31.87
58471;BME280;44258;51.288;12.068;2023-07-02T13:45:42;99757.31;;;24.94;32.61
58471;BME280;44258;51.288;12.068;2023-07-02T13:48:29;99766.06;;;24.52;32.10
58471;BME280;44258;51.288;12.068;2023-07-02T13:51:16;99759.34;;;24.70;31.79
58471;BME280;44258;51.288;12.068;2023-07-02T13:54:02;99754.03;;;24.68;32.58
58471;BME280;44258;51.288;12.068;2023-07-02T13:56:49;99762.84;;;24.64;31.53
58471;BME280;44258;51.288;12.068;2023-07-02T13:59:44;99762.31;;;24.54;32.37
58471;BME280;44258;51.288;12.068;2023-07-02T14:02:32;99757.97;;;24.15;32.78
58471;BME280;44258;51.288;12.068;2023-07-02T14:05:19;99757.47;;;24.41;32.78
58471;BME280;44258;51.288;12.068;2023-07-02T14:08:06;99768.16;;;24.65;32.68
58471;BME280;44258;51.288;12.068;2023-07-02T14:10:53;99763.34;;;24.38;32.60
58471;BME280;44258;51.288;12.068;2023-07-02T14:13:40;99772.63;;;24.22;32.29
58471;BME280;44258;51.288;12.068;2023-07-02T14:16:28;99769.44;;;23.80;32.92
58471;BME280;44258;51.288;12.068;2023-07-02T14:19:17;99783.66;;;23.61;33.47
58471;BME280;44258;51.288;12.068;2023-07-02T14:22:04;99782.50;;;23.78;33.26
58471;BME280;44258;51.288;12.068;2023-07-02T14:24:51;99780.69;;;24.23;32.39
58471;BME280;44258;51.288;12.068;2023-07-02T14:27:38;99785.50;;;24.36;32.48
58471;BME280;44258;51.288;12.068;2023-07-02T14:30:25;99777.00;;;24.31;32.93
58471;BME280;44258;51.288;12.068;2023-07-02T14:33:14;99780.59;;;24.46;31.55
58471;BME280;44258;51.288;12.068;2023-07-02T14:36:02;99772.59;;;24.66;30.94
58471;BME280;44258;51.288;12.068;2023-07-02T14:38:49;99797.13;;;24.98;30.76
58471;BME280;44258;51.288;12.068;2023-07-02T14:41:36;99776.97;;;24.90;29.42